Time;durP1;ratioP1;P1;durP2;ratioP2;P2;SDS_P1;SDS_P2;PMS_P1;PMS_P2;Temp;Humidity;BMP_temperature;BMP_pressure;BME280_temperature;BME280_humidity;BME280_pressure;Samples;Min_cycle;Max_cycle;Signal;HPM_P1;HPM_P2
2023/09/19 00:02:04;;;;;;;16.85;3.30;;;;;;;21.40;100.00;94293.44;5052867;28;20063;-81
2023/09/19 00:04:33;;;;;;;20.88;3.58;;;;;;;21.14;100.00;94296.50;5048286;28;20505;-81
2023/09/19 00:07:04;;;;;;;20.00;3.75;;;;;;;21.15;100.00;94293.50;5052714;28;20033;-81
2023/09/19 00:09:29;;;;;;;20.90;3.28;;;;;;;21.14;100.00;94291.19;5049939;28;20033;-81
2023/09/19 00:11:55;;;;;;;18.60;3.60;;;;;;;21.20;100.00;94300.47;5052523;28;20079;-81
2023/09/19 00:14:24;;;;;;;17.60;3.42;;;;;;;21.23;100.00;94288.38;5054042;28;20032;-80
2023/09/19 00:16:50;;;;;;;19.77;3.58;;;;;;;21.09;100.00;94284.19;5053284;28;20025;-80
2023/09/19 00:19:16;;;;;;;18.60;3.33;;;;;;;20.99;100.00;94290.75;5052645;28;20037;-81
2023/09/19 00:21:41;;;;;;;16.10;3.00;;;;;;;20.83;100.00;94277.34;5048913;28;20405;-81
2023/09/19 00:24:08;;;;;;;13.93;3.55;;;;;;;20.90;100.00;94280.25;5051891;28;20058;-81
2023/09/19 00:26:38;;;;;;;18.00;3.40;;;;;;;20.74;100.00;94274.78;5050598;28;20033;-81
2023/09/19 00:29:06;;;;;;;17.75;3.60;;;;;;;20.88;100.00;94274.47;5053048;28;20087;-81
2023/09/19 00:31:32;;;;;;;18.95;3.45;;;;;;;20.90;100.00;94269.59;5044938;28;20400;-81
2023/09/19 00:33:59;;;;;;;14.95;3.17;;;;;;;20.69;100.00;94261.72;5054067;28;20040;-81
2023/09/19 00:36:25;;;;;;;21.60;3.22;;;;;;;20.84;100.00;94259.50;5052522;28;20127;-81
2023/09/19 00:38:51;;;;;;;17.50;3.40;;;;;;;20.50;100.00;94259.59;5053975;28;20112;-81
2023/09/19 00:41:16;;;;;;;20.00;3.30;;;;;;;20.36;100.00;94281.19;5056542;28;20513;-81
2023/09/19 00:43:42;;;;;;;25.35;3.53;;;;;;;20.55;100.00;94269.25;5056370;28;20032;-81
2023/09/19 00:46:07;;;;;;;14.40;3.38;;;;;;;20.36;100.00;94275.13;5056391;28;20033;-81
2023/09/19 00:48:40;;;;;;;22.23;3.28;;;;;;;20.40;100.00;94289.31;5056558;28;20090;-81
2023/09/19 00:51:05;;;;;;;21.37;4.20;;;;;;;20.46;100.00;94278.13;5056503;28;20041;-81
2023/09/19 00:53:31;;;;;;;16.48;3.80;;;;;;;20.49;100.00;94279.34;5056323;28;20630;-80
2023/09/19 00:55:56;;;;;;;21.02;3.47;;;;;;;20.48;100.00;94278.56;5039736;28;20039;-81
2023/09/19 00:58:22;;;;;;;25.33;3.55;;;;;;;20.38;100.00;94286.22;5057101;28;20060;-80
2023/09/19 01:00:50;;;;;;;19.35;3.45;;;;;;;20.31;100.00;94295.53;5055875;28;20115;-80
2023/09/19 01:03:18;;;;;;;20.52;3.67;;;;;;;20.25;100.00;94272.13;5056071;28;20442;-80
2023/09/19 01:05:43;;;;;;;12.77;3.20;;;;;;;20.36;100.00;94291.09;5056038;28;20453;-81
2023/09/19 01:08:11;;;;;;;16.67;3.20;;;;;;;20.81;100.00;94292.13;5056240;28;20029;-81
2023/09/19 01:10:38;;;;;;;18.33;3.33;;;;;;;20.95;100.00;94284.56;5055802;28;20036;-80
2023/09/19 01:13:05;;;;;;;17.23;4.18;;;;;;;20.90;100.00;94280.25;5056102;28;20033;-81
2023/09/19 01:15:40;;;;;;;12.55;3.00;;;;;;;21.11;100.00;94286.53;5039449;28;20032;-81
2023/09/19 01:18:24;;;;;;;16.17;3.40;;;;;;;20.97;100.00;94285.00;5055860;28;20434;-81
2023/09/19 01:21:12;;;;;;;25.65;4.00;;;;;;;20.94;100.00;94298.19;5056022;28;20810;-81
2023/09/19 01:23:52;;;;;;;20.48;3.42;;;;;;;20.91;100.00;94296.97;5039266;28;20086;-81
2023/09/19 01:26:37;;;;;;;16.42;3.42;;;;;;;21.11;100.00;94291.84;5055817;28;20787;-80
2023/09/19 01:29:15;;;;;;;23.23;3.92;;;;;;;21.00;100.00;94302.97;5055497;28;20029;-80
2023/09/19 01:31:42;;;;;;;15.65;3.03;;;;;;;21.01;100.00;94304.50;5055773;28;20032;-81
2023/09/19 01:34:08;;;;;;;18.15;3.35;;;;;;;20.99;100.00;94301.41;5055986;28;20127;-81
2023/09/19 01:36:38;;;;;;;18.50;3.30;;;;;;;20.92;100.00;94300.44;5055834;28;20060;-81
2023/09/19 01:39:13;;;;;;;15.88;3.95;;;;;;;21.12;100.00;94294.16;5055229;28;20029;-81
2023/09/19 01:41:51;;;;;;;17.65;3.30;;;;;;;20.99;100.00;94290.75;5055380;28;20032;-81
2023/09/19 01:44:55;;;;;;;17.48;3.25;;;;;;;20.90;100.00;94290.88;5055534;28;20346;-81
2023/09/19 01:47:28;;;;;;;;;;;;;;;20.95;100.00;94305.06;5056834;28;20174;-81
2023/09/19 01:50:03;;;;;;;22.58;3.67;;;;;;;20.98;100.00;94294.53;5055381;28;19920;-81
2023/09/19 01:52:30;;;;;;;28.60;4.13;;;;;;;20.87;100.00;94293.44;5055474;28;20477;-81
2023/09/19 01:55:06;;;;;;;14.68;3.17;;;;;;;20.78;100.00;94298.84;5055532;28;20166;-81
2023/09/19 01:57:50;;;;;;;15.82;3.20;;;;;;;20.71;100.00;94302.06;5055431;28;20040;-81
2023/09/19 02:00:17;;;;;;;18.83;3.47;;;;;;;20.68;100.00;94293.97;5055177;28;20453;-81
2023/09/19 02:02:45;;;;;;;16.13;3.10;;;;;;;20.60;100.00;94295.63;5055053;28;20086;-81
2023/09/19 02:05:12;;;;;;;22.70;3.70;;;;;;;20.60;100.00;94288.44;5055038;28;20036;-81
2023/09/19 02:07:38;;;;;;;22.17;3.78;;;;;;;20.58;100.00;94280.00;5054844;28;20028;-81
2023/09/19 02:10:05;;;;;;;17.88;3.10;;;;;;;20.63;100.00;94277.13;5054812;28;20410;-81
2023/09/19 02:12:32;;;;;;;18.17;3.42;;;;;;;20.85;100.00;94277.03;5055035;28;20434;-81
2023/09/19 02:14:59;;;;;;;20.27;3.15;;;;;;;20.79;100.00;94273.00;5055078;28;20037;-81
2023/09/19 02:17:25;;;;;;;16.55;3.35;;;;;;;20.73;100.00;94262.59;5054555;28;20040;-81
2023/09/19 02:19:55;;;;;;;14.85;3.30;;;;;;;20.65;100.00;94274.13;5054668;28;20032;-81
2023/09/19 02:22:24;;;;;;;12.63;3.28;;;;;;;20.71;100.00;94275.47;5039801;28;20048;-80
2023/09/19 02:24:50;;;;;;;14.18;3.40;;;;;;;20.77;100.00;94274.09;5056433;28;20036;-80
2023/09/19 02:27:17;;;;;;;12.88;3.20;;;;;;;20.76;100.00;94271.78;5056241;28;20052;-81
2023/09/19 02:29:43;;;;;;;11.82;3.00;;;;;;;20.70;100.00;94278.44;5056281;28;20025;-81
2023/09/19 02:32:11;;;;;;;16.83;3.28;;;;;;;20.65;100.00;94270.69;5056210;28;20035;-81
2023/09/19 02:34:36;;;;;;;11.68;3.33;;;;;;;20.80;100.00;94263.91;5040116;28;20032;-81
2023/09/19 02:37:06;;;;;;;12.43;3.13;;;;;;;20.74;100.00;94263.38;5055856;28;20033;-81
2023/09/19 02:39:32;;;;;;;10.23;3.00;;;;;;;20.73;100.00;94254.59;5055662;28;20032;-81
2023/09/19 02:41:57;;;;;;;16.55;3.30;;;;;;;20.63;100.00;94255.84;5054932;28;20035;-81
2023/09/19 02:44:23;;;;;;;10.38;2.92;;;;;;;20.47;100.00;94262.94;5055052;28;20036;-81
2023/09/19 02:46:49;;;;;;;16.10;3.25;;;;;;;20.51;100.00;94250.50;5055723;28;20021;-81
2023/09/19 02:49:15;;;;;;;18.67;3.83;;;;;;;20.05;100.00;94247.94;5055709;28;20063;-81
2023/09/19 02:51:40;;;;;;;10.40;2.90;;;;;;;19.69;100.00;94257.34;5055317;28;20035;-81
2023/09/19 02:54:06;;;;;;;6.97;2.78;;;;;;;19.79;100.00;94256.94;5056859;28;20025;-81
2023/09/19 02:56:32;;;;;;;15.63;3.70;;;;;;;20.16;100.00;94259.69;5057264;28;20048;-81
2023/09/19 02:58:58;;;;;;;11.52;3.03;;;;;;;20.06;100.00;94265.44;5055532;28;20056;-81
2023/09/19 03:01:23;;;;;;;12.57;2.83;;;;;;;20.32;100.00;94267.03;5055185;28;20031;-80
2023/09/19 03:03:49;;;;;;;13.98;2.70;;;;;;;20.53;100.00;94252.84;5038847;28;20344;-81
2023/09/19 03:06:15;;;;;;;13.55;2.42;;;;;;;20.75;100.00;94255.03;5033056;28;20037;-80
2023/09/19 03:08:42;;;;;;;15.95;2.92;;;;;;;20.53;100.00;94252.84;5056538;28;20327;-81
2023/09/19 03:11:12;;;;;;;13.68;3.50;;;;;;;20.77;99.11;94247.47;5054372;28;20028;-80
2023/09/19 03:13:38;;;;;;;9.30;2.63;;;;;;;20.58;100.00;94244.63;5035424;28;20434;-80
2023/09/19 03:16:06;;;;;;;11.05;2.60;;;;;;;20.58;100.00;94245.38;5019371;28;20040;-81
2023/09/19 03:18:34;;;;;;;9.30;2.55;;;;;;;20.49;100.00;94248.16;5036333;28;20044;-81
2023/09/19 03:21:00;;;;;;;8.52;2.97;;;;;;;20.41;100.00;94245.63;5035505;28;20041;-80
2023/09/19 03:23:26;;;;;;;8.35;2.72;;;;;;;20.31;100.00;94254.81;5019299;28;20037;-81
2023/09/19 03:25:52;;;;;;;13.32;2.72;;;;;;;20.12;100.00;94256.16;5019142;28;20350;-81
2023/09/19 03:28:18;;;;;;;10.77;3.17;;;;;;;19.78;100.00;94256.16;5019135;28;20052;-81
2023/09/19 03:30:43;;;;;;;14.48;3.03;;;;;;;19.57;100.00;94258.06;5036587;28;20029;-81
2023/09/19 03:33:11;;;;;;;8.90;2.92;;;;;;;19.51;100.00;94260.19;5035278;28;20067;-80
2023/09/19 03:35:38;;;;;;;13.38;2.78;;;;;;;19.80;100.00;94266.47;5019255;28;20057;-81
2023/09/19 03:38:04;;;;;;;14.98;2.80;;;;;;;19.88;100.00;94267.50;5035288;28;20068;-81
2023/09/19 03:40:30;;;;;;;10.15;2.88;;;;;;;19.96;100.00;94269.31;5035345;28;20045;-81
2023/09/19 03:42:55;;;;;;;10.00;2.60;;;;;;;19.94;100.00;94265.41;5035151;28;20136;-81
2023/09/19 03:45:21;;;;;;;10.18;3.00;;;;;;;19.95;100.00;94270.41;5035142;28;20032;-80
2023/09/19 03:47:49;;;;;;;10.07;2.92;;;;;;;19.79;100.00;94267.56;5036237;28;20454;-80
2023/09/19 03:50:17;;;;;;;10.23;2.85;;;;;;;19.68;100.00;94271.75;5035192;28;20351;-81
2023/09/19 03:52:45;;;;;;;13.20;3.70;;;;;;;19.73;100.00;94274.19;5036328;28;20052;-80
2023/09/19 03:55:11;;;;;;;11.57;2.58;;;;;;;19.66;100.00;94276.63;5034832;28;20443;-81
2023/09/19 03:57:37;;;;;;;12.65;2.92;;;;;;;19.60;100.00;94284.03;5018681;28;20087;-81
2023/09/19 04:00:05;;;;;;;9.57;3.40;;;;;;;19.30;100.00;94278.81;5036157;28;20501;-80
2023/09/19 04:02:33;;;;;;;17.38;3.40;;;;;;;19.31;100.00;94277.69;5035755;28;20025;-81
2023/09/19 04:04:58;;;;;;;14.90;2.97;;;;;;;19.26;100.00;94286.63;5035146;28;20024;-80
2023/09/19 04:07:25;;;;;;;18.70;3.50;;;;;;;19.50;100.00;94283.31;5018693;28;20128;-80
2023/09/19 04:09:53;;;;;;;12.15;2.47;;;;;;;19.69;100.00;94281.28;5044960;28;20025;-80
2023/09/19 04:12:19;;;;;;;12.90;2.70;;;;;;;19.70;100.00;94277.50;5037028;28;20347;-80
2023/09/19 04:14:44;;;;;;;9.07;2.63;;;;;;;19.78;100.00;94284.63;5058242;28;20033;-80
2023/09/19 04:17:10;;;;;;;11.70;3.38;;;;;;;19.91;100.00;94291.53;5058645;28;20052;-80
2023/09/19 04:19:36;;;;;;;12.15;2.83;;;;;;;19.85;100.00;94278.75;5058483;28;20033;-80
2023/09/19 04:22:01;;;;;;;12.90;2.45;;;;;;;19.85;100.00;94278.75;5058557;28;20104;-80
2023/09/19 04:24:27;;;;;;;9.93;3.08;;;;;;;19.74;100.00;94286.38;5059763;28;20029;-80
2023/09/19 04:26:52;;;;;;;14.82;3.58;;;;;;;19.86;100.00;94286.41;5059701;28;20025;-80
2023/09/19 04:29:19;;;;;;;9.65;2.78;;;;;;;19.70;100.00;94282.84;5060100;28;20060;-80
2023/09/19 04:31:45;;;;;;;13.27;2.88;;;;;;;19.86;100.00;94280.31;5058562;28;20393;-81
2023/09/19 04:34:17;;;;;;;9.48;2.88;;;;;;;20.05;100.00;94282.50;5058420;28;20033;-81
2023/09/19 04:36:43;;;;;;;9.35;2.88;;;;;;;19.82;100.00;94285.53;5058545;28;20111;-81
2023/09/19 04:39:10;;;;;;;12.25;2.70;;;;;;;20.13;100.00;94281.63;5058178;28;20516;-81
2023/09/19 04:41:38;;;;;;;17.27;2.90;;;;;;;19.97;100.00;94276.16;5059001;28;20025;-81
2023/09/19 04:44:05;;;;;;;11.15;2.70;;;;;;;20.09;100.00;94286.06;5030038;28;20338;-81
2023/09/19 04:46:30;;;;;;;12.82;3.08;;;;;;;20.10;100.00;94270.88;5038464;28;20079;-81
2023/09/19 04:48:55;;;;;;;15.27;3.08;;;;;;;20.04;100.00;94281.75;5039344;28;20025;-81
2023/09/19 04:51:21;;;;;;;8.63;2.92;;;;;;;20.01;100.00;94278.94;5038259;28;20025;-81
2023/09/19 04:53:47;;;;;;;10.40;3.08;;;;;;;19.94;100.00;94284.03;5038104;28;20053;-81
2023/09/19 04:56:13;;;;;;;16.48;3.60;;;;;;;19.92;100.00;94290.44;5037439;28;20029;-82
2023/09/19 04:58:38;;;;;;;11.18;3.28;;;;;;;19.76;100.00;94284.97;5037792;28;20025;-82
2023/09/19 05:01:04;;;;;;;11.32;2.90;;;;;;;19.77;100.00;94296.34;5039270;28;20029;-81
2023/09/19 05:03:30;;;;;;;10.82;2.75;;;;;;;19.71;100.00;94287.81;5072221;28;20055;-80
2023/09/19 05:05:55;;;;;;;11.00;3.30;;;;;;;19.78;100.00;94289.94;5058361;28;20083;-81
2023/09/19 05:08:22;;;;;;;8.30;3.13;;;;;;;19.77;100.00;94294.47;5057408;28;20043;-81
2023/09/19 05:10:48;;;;;;;16.70;3.40;;;;;;;19.86;100.00;94296.25;5059003;28;20525;-81
2023/09/19 05:13:15;;;;;;;10.77;2.90;;;;;;;19.88;100.00;94300.16;5058208;28;20028;-81
2023/09/19 05:15:40;;;;;;;7.00;2.65;;;;;;;19.84;100.00;94290.50;5057628;28;20083;-82
2023/09/19 05:18:06;;;;;;;12.40;2.80;;;;;;;19.98;100.00;94296.34;5057538;28;20437;-81
2023/09/19 05:20:36;;;;;;;7.55;3.15;;;;;;;19.94;100.00;94290.13;5057536;28;20021;-81
2023/09/19 05:23:02;;;;;;;14.02;3.33;;;;;;;19.80;100.00;94293.06;5057004;28;20025;-81
2023/09/19 05:25:29;;;;;;;11.35;2.65;;;;;;;19.85;100.00;94300.03;5040557;28;20056;-81
2023/09/19 05:28:05;;;;;;;18.50;3.42;;;;;;;19.83;100.00;94308.34;5040873;28;20028;-81
2023/09/19 05:30:32;;;;;;;17.92;3.80;;;;;;;19.81;100.00;94307.91;5057313;28;20068;-81
2023/09/19 05:32:58;;;;;;;17.15;3.15;;;;;;;19.97;100.00;94308.06;5057391;28;20029;-81
2023/09/19 05:35:24;;;;;;;11.75;3.38;;;;;;;19.98;100.00;94314.19;5057359;28;20331;-81
2023/09/19 05:37:53;;;;;;;15.07;3.42;;;;;;;19.89;100.00;94312.34;5057213;28;20174;-81
2023/09/19 05:40:19;;;;;;;16.83;3.80;;;;;;;19.90;100.00;94310.47;5040675;28;20339;-82
2023/09/19 05:42:44;;;;;;;8.75;2.50;;;;;;;19.84;100.00;94312.56;5057389;28;20029;-81
2023/09/19 05:45:14;;;;;;;17.38;3.40;;;;;;;19.86;100.00;94315.66;5040756;28;20029;-82
2023/09/19 05:47:41;;;;;;;11.93;3.05;;;;;;;19.87;100.00;94311.09;5056983;28;20036;-82
2023/09/19 05:50:09;;;;;;;12.02;2.90;;;;;;;19.77;100.00;94318.41;5056928;28;20027;-81
2023/09/19 05:52:37;;;;;;;13.02;3.10;;;;;;;19.74;100.00;94320.94;5040563;28;20357;-81
2023/09/19 05:55:06;;;;;;;17.48;3.20;;;;;;;19.78;100.00;94319.16;5057017;28;20445;-81
2023/09/19 05:57:32;;;;;;;17.35;3.65;;;;;;;19.83;100.00;94328.81;5056779;28;20024;-81
2023/09/19 05:59:58;;;;;;;15.13;3.45;;;;;;;19.86;100.00;94331.63;5040419;28;20392;-81
2023/09/19 06:02:26;;;;;;;12.40;2.88;;;;;;;19.99;100.00;94337.00;5040300;28;20029;-81
2023/09/19 06:04:53;;;;;;;15.00;3.30;;;;;;;19.97;100.00;94328.59;5056788;28;20484;-82
2023/09/19 06:07:18;;;;;;;11.82;3.45;;;;;;;20.09;100.00;94336.59;5056603;28;20025;-82
2023/09/19 06:09:43;;;;;;;15.32;2.92;;;;;;;20.17;100.00;94333.06;5056499;28;20028;-81
2023/09/19 06:12:09;;;;;;;11.98;3.50;;;;;;;20.33;100.00;94340.41;5056607;28;20032;-81
2023/09/19 06:14:34;;;;;;;12.93;3.13;;;;;;;20.42;100.00;94349.06;5056518;28;20029;-81
2023/09/19 06:17:00;;;;;;;12.93;3.15;;;;;;;20.54;100.00;94355.53;5056399;28;20116;-82
2023/09/19 06:19:25;;;;;;;17.08;3.28;;;;;;;20.69;100.00;94346.09;5039887;28;20119;-81
2023/09/19 06:21:53;;;;;;;12.45;3.13;;;;;;;20.69;100.00;94349.56;5057615;28;20430;-81
2023/09/19 06:24:19;;;;;;;11.18;2.70;;;;;;;20.81;100.00;94348.78;5056391;28;20021;-81
2023/09/19 06:26:45;;;;;;;10.95;2.83;;;;;;;20.87;100.00;94368.00;5057498;28;20342;-82
2023/09/19 06:29:10;;;;;;;14.95;3.28;;;;;;;21.01;100.00;94352.44;5056174;28;20039;-81
2023/09/19 06:31:36;;;;;;;7.78;2.95;;;;;;;21.22;100.00;94354.19;5056282;28;20024;-81
2023/09/19 06:34:03;;;;;;;14.48;3.17;;;;;;;21.33;100.00;94368.63;5056144;28;20048;-82
2023/09/19 06:36:28;;;;;;;9.50;2.88;;;;;;;21.38;100.00;94364.94;5055928;28;20119;-82
2023/09/19 06:38:54;;;;;;;11.25;2.90;;;;;;;21.46;100.00;94365.94;5057114;28;20099;-82
2023/09/19 06:41:21;;;;;;;8.70;2.67;;;;;;;21.44;100.00;94368.16;5057275;28;20107;-82
2023/09/19 06:43:46;;;;;;;11.98;3.38;;;;;;;21.44;100.00;94374.25;5055957;28;20032;-82
2023/09/19 06:46:12;;;;;;;11.57;2.78;;;;;;;21.52;100.00;94366.47;5056047;28;20119;-82
2023/09/19 06:48:38;;;;;;;12.15;3.58;;;;;;;21.68;100.00;94371.91;5055906;28;20099;-81
2023/09/19 06:51:05;;;;;;;14.30;2.80;;;;;;;21.70;100.00;94377.69;5055952;28;20059;-81
2023/09/19 06:53:35;;;;;;;11.70;2.85;;;;;;;21.67;100.00;94378.38;5055949;28;20493;-82
2023/09/19 06:56:01;;;;;;;13.55;3.03;;;;;;;21.69;100.00;94378.78;5055773;28;20028;-82
2023/09/19 06:58:26;;;;;;;11.23;3.55;;;;;;;21.64;100.00;94378.97;5055598;28;20021;-82
2023/09/19 07:00:52;;;;;;;17.65;3.30;;;;;;;21.70;100.00;94391.00;5039425;28;20139;-82
2023/09/19 07:03:20;;;;;;;12.98;2.88;;;;;;;21.66;100.00;94384.78;5055779;28;20016;-82
2023/09/19 07:05:47;;;;;;;13.55;2.97;;;;;;;21.64;100.00;94381.66;5055685;28;20024;-82
2023/09/19 07:08:13;;;;;;;14.63;3.35;;;;;;;21.71;100.00;94389.91;5055578;28;20024;-82
2023/09/19 07:10:48;;;;;;;13.15;3.28;;;;;;;21.66;100.00;94388.25;5055669;28;20021;-82
2023/09/19 07:13:16;;;;;;;8.85;2.70;;;;;;;21.61;100.00;94396.44;5055677;28;20444;-81
2023/09/19 07:15:46;;;;;;;9.75;2.88;;;;;;;21.55;100.00;94397.78;5055550;28;20029;-81
2023/09/19 07:18:14;;;;;;;19.33;3.33;;;;;;;21.69;100.00;94408.13;5055471;28;20081;-82
2023/09/19 07:20:45;;;;;;;12.07;3.10;;;;;;;21.67;100.00;94402.34;5039237;28;20033;-81
2023/09/19 07:23:13;;;;;;;11.55;3.20;;;;;;;21.81;100.00;94405.44;5055547;28;20025;-81
2023/09/19 07:25:39;;;;;;;14.77;3.25;;;;;;;21.80;100.00;94416.41;5055651;28;20032;-82
2023/09/19 07:28:05;;;;;;;16.15;3.25;;;;;;;21.87;100.00;94416.59;5055268;28;20033;-82
2023/09/19 07:30:31;;;;;;;9.25;2.90;;;;;;;21.88;100.00;94404.84;5055409;28;20048;-82
2023/09/19 07:32:56;;;;;;;12.30;3.03;;;;;;;22.11;100.00;94417.66;5055364;28;20034;-82
2023/09/19 07:35:22;;;;;;;7.38;2.33;;;;;;;22.29;100.00;94404.78;5038680;28;20106;-82
2023/09/19 07:37:49;;;;;;;15.95;2.70;;;;;;;22.22;98.94;94399.25;5055224;28;20028;-82
2023/09/19 07:40:17;;;;;;;6.78;2.63;;;;;;;22.37;100.00;94408.41;5055157;28;20032;-82
2023/09/19 07:42:44;;;;;;;11.82;3.33;;;;;;;22.54;100.00;94407.38;5038861;28;20029;-82
2023/09/19 07:45:14;;;;;;;11.35;2.55;;;;;;;22.78;96.37;94409.09;5039007;28;20127;-82
2023/09/19 07:47:49;;;;;;;16.48;3.05;;;;;;;22.77;93.96;94415.56;5057063;28;20025;-82
2023/09/19 07:50:21;;;;;;;11.60;2.67;;;;;;;22.98;91.67;94409.97;5042964;28;20308;-82
2023/09/19 07:52:48;;;;;;;7.20;2.50;;;;;;;22.62;90.77;94411.75;5060355;28;20048;-82
2023/09/19 07:55:17;;;;;;;7.88;2.20;;;;;;;22.78;89.31;94410.97;5059198;28;20036;-82
2023/09/19 07:57:46;;;;;;;12.30;2.53;;;;;;;22.85;88.19;94419.19;5059106;28;20405;-82
2023/09/19 08:00:12;;;;;;;6.30;1.92;;;;;;;22.74;85.13;94414.34;5054739;28;20131;-82
2023/09/19 08:02:39;;;;;;;9.98;2.83;;;;;;;23.11;88.15;94420.56;5058927;28;20033;-82
2023/09/19 08:05:09;;;;;;;17.08;2.90;;;;;;;23.36;87.22;94421.16;5059342;28;20029;-82
2023/09/19 08:07:39;;;;;;;8.43;2.28;;;;;;;23.02;84.04;94426.06;5058980;28;20033;-82
2023/09/19 08:10:12;;;;;;;11.48;2.63;;;;;;;23.20;79.17;94429.16;5042507;28;20025;-82
2023/09/19 08:12:45;;;;;;;10.05;2.15;;;;;;;23.30;82.86;94431.34;5058920;28;20025;-82
2023/09/19 08:15:14;;;;;;;10.63;2.55;;;;;;;23.30;82.68;94428.66;5058967;28;20040;-82
2023/09/19 08:17:40;;;;;;;9.05;2.10;;;;;;;23.55;79.78;94427.66;5058613;28;20025;-82
2023/09/19 08:20:07;;;;;;;7.40;1.92;;;;;;;23.28;79.42;94420.22;5058585;28;20404;-82
2023/09/19 08:22:34;;;;;;;10.75;2.17;;;;;;;23.67;76.33;94422.19;5059409;28;20053;-82
2023/09/19 08:25:04;;;;;;;11.05;2.03;;;;;;;23.66;76.11;94417.97;5042326;28;20032;-82
2023/09/19 08:27:30;;;;;;;20.27;2.08;;;;;;;23.71;75.09;94423.03;5058434;28;20033;-82
2023/09/19 08:29:56;;;;;;;12.57;2.10;;;;;;;23.33;74.94;94415.72;5058473;28;20109;-82
2023/09/19 08:32:24;;;;;;;9.02;2.15;;;;;;;23.20;76.64;94431.81;5058052;28;20115;-82
2023/09/19 08:34:49;;;;;;;7.95;2.00;;;;;;;23.24;77.09;94413.22;5042426;28;20446;-82
2023/09/19 08:37:18;;;;;;;11.05;2.10;;;;;;;23.51;74.78;94421.47;5059448;28;20037;-82
2023/09/19 08:39:44;;;;;;;6.35;1.92;;;;;;;23.70;71.80;94426.06;5042121;28;20123;-82
2023/09/19 08:42:11;;;;;;;9.77;2.33;;;;;;;23.74;70.31;94426.91;5058336;28;20050;-82
2023/09/19 08:44:37;;;;;;;12.73;1.80;;;;;;;23.60;71.33;94423.94;5041811;28;20504;-82
2023/09/19 08:47:27;;;;;;;10.35;2.42;;;;;;;23.60;70.92;94424.72;5058182;28;20028;-82
2023/09/19 08:49:53;;;;;;;6.40;1.83;;;;;;;23.78;70.44;94421.66;5058195;28;20096;-82
2023/09/19 08:52:40;;;;;;;6.70;2.00;;;;;;;23.63;67.49;94423.25;5058432;28;20123;-82
2023/09/19 08:55:10;;;;;;;6.70;1.92;;;;;;;23.83;67.55;94429.38;5058307;28;20047;-82
2023/09/19 08:57:39;;;;;;;10.27;1.63;;;;;;;23.83;65.98;94424.03;5058061;28;20087;-82
2023/09/19 09:00:11;;;;;;;8.73;1.70;;;;;;;23.92;66.72;94400.53;5057391;28;20060;-82
2023/09/19 09:02:40;;;;;;;9.23;1.77;;;;;;;23.93;66.68;94420.81;5058124;28;20067;-82
2023/09/19 09:05:08;;;;;;;8.00;1.67;;;;;;;23.89;65.78;94419.19;5057917;28;20055;-82
2023/09/19 09:07:36;;;;;;;5.72;2.00;;;;;;;23.83;64.00;94422.16;5041398;28;20082;-82
2023/09/19 09:10:02;;;;;;;5.80;1.60;;;;;;;24.11;66.17;94417.75;5057833;28;20323;-82
2023/09/19 09:12:29;;;;;;;7.75;2.10;;;;;;;23.95;64.19;94412.41;5057795;28;20338;-82
2023/09/19 09:14:57;;;;;;;16.17;1.92;;;;;;;24.26;64.62;94410.78;5057760;28;20029;-82
2023/09/19 09:17:24;;;;;;;12.30;2.05;;;;;;;23.82;64.64;94412.56;5041379;28;20033;-82
2023/09/19 09:19:52;;;;;;;7.88;1.70;;;;;;;24.39;62.91;94427.44;5041193;28;20040;-82
2023/09/19 09:22:18;;;;;;;11.23;1.70;;;;;;;24.24;64.16;94413.78;5041120;28;20025;-82
2023/09/19 09:24:54;;;;;;;7.07;1.83;;;;;;;24.31;61.94;94415.03;5041180;28;20353;-82
2023/09/19 09:27:20;;;;;;;3.22;1.40;;;;;;;24.38;62.11;94428.56;5057450;28;20059;-82
2023/09/19 09:29:51;;;;;;;7.00;1.92;;;;;;;24.25;62.48;94417.25;5057514;28;20028;-82
2023/09/19 09:32:24;;;;;;;5.03;1.60;;;;;;;24.02;62.18;94415.25;5057359;28;20132;-82
2023/09/19 09:34:53;;;;;;;5.00;1.58;;;;;;;24.28;63.95;94419.22;5057360;28;20067;-82
2023/09/19 09:37:20;;;;;;;5.25;1.55;;;;;;;24.78;61.91;94427.41;5057534;28;20068;-82
2023/09/19 09:40:12;;;;;;;7.43;1.90;;;;;;;24.57;61.07;94423.16;5057413;28;20079;-82
2023/09/19 09:42:38;;;;;;;2.92;1.60;;;;;;;24.40;61.02;94427.09;5056847;28;20413;-82
2023/09/19 09:45:36;;;;;;;6.18;1.60;;;;;;;24.75;60.39;94429.97;5057269;28;20040;-82
2023/09/19 09:48:03;;;;;;;6.10;1.88;;;;;;;24.80;59.50;94421.66;5042178;28;20037;-82
2023/09/19 09:53:26;;;;;;;6.82;1.60;;;;;;;24.55;61.71;94422.00;5057204;28;20033;-82
2023/09/19 09:56:06;;;;;;;10.10;2.42;;;;;;;24.66;63.73;94430.97;5040761;28;20024;-82
2023/09/19 09:58:35;;;;;;;5.05;1.73;;;;;;;24.74;63.05;94439.16;5056992;28;20033;-82
2023/09/19 10:01:08;;;;;;;6.43;2.05;;;;;;;24.53;64.09;94424.22;5056952;28;20126;-81
2023/09/19 10:03:39;;;;;;;11.60;2.17;;;;;;;24.59;63.86;94433.53;5056952;28;20033;-82
2023/09/19 10:09:11;;;;;;;11.18;2.40;;;;;;;24.96;67.29;94427.69;5056781;28;20029;-82
2023/09/19 10:11:51;;;;;;;8.00;1.70;;;;;;;24.91;64.40;94427.22;5056810;28;20116;-82
2023/09/19 10:14:23;;;;;;;9.52;2.13;;;;;;;24.65;64.25;94418.72;5040801;28;20029;-82
2023/09/19 10:16:49;;;;;;;7.60;2.20;;;;;;;24.83;65.72;94432.44;5040745;28;20025;-82
2023/09/19 10:19:25;;;;;;;5.93;1.90;;;;;;;24.95;62.56;94436.84;5056334;28;20343;-82
2023/09/19 10:21:55;;;;;;;10.93;1.83;;;;;;;24.33;61.02;94428.88;5040003;28;20025;-82
2023/09/19 10:24:21;;;;;;;8.30;1.80;;;;;;;24.55;62.25;94440.75;5039897;28;20066;-82
2023/09/19 10:26:50;;;;;;;5.45;2.13;;;;;;;24.33;63.37;94437.66;5056432;28;20040;-82
2023/09/19 10:29:17;;;;;;;8.00;1.80;;;;;;;24.99;62.75;94436.91;5056299;28;20025;-82
2023/09/19 10:31:47;;;;;;;6.47;1.90;;;;;;;24.33;60.59;94440.34;5056433;28;20481;-82
2023/09/19 10:34:14;;;;;;;8.77;1.95;;;;;;;24.77;60.34;94443.81;5056210;28;20068;-82
2023/09/19 10:36:46;;;;;;;16.63;2.28;;;;;;;24.99;61.96;94448.41;5056214;28;20032;-82
2023/09/19 10:39:18;;;;;;;6.35;1.90;;;;;;;24.63;59.30;94439.72;5056092;28;20475;-81
2023/09/19 10:41:53;;;;;;;6.78;1.67;;;;;;;25.12;60.32;94438.28;5056119;28;20075;-82
2023/09/19 10:44:28;;;;;;;10.48;2.20;;;;;;;25.07;58.37;94449.31;5056160;28;20029;-81
2023/09/19 10:46:54;;;;;;;4.05;1.58;;;;;;;25.00;59.27;94435.78;5055953;28;20037;-82
2023/09/19 10:49:21;;;;;;;5.88;1.55;;;;;;;24.88;57.86;94419.88;5057177;28;20112;-82
2023/09/19 10:51:49;;;;;;;5.32;1.90;;;;;;;24.85;58.15;94424.81;5057100;28;20032;-82
2023/09/19 10:54:17;;;;;;;8.85;2.20;;;;;;;25.28;57.70;94432.00;5055800;28;20032;-82
2023/09/19 10:56:46;;;;;;;5.50;1.50;;;;;;;25.56;59.19;94428.19;5055906;28;20068;-82
2023/09/19 10:59:15;;;;;;;6.53;1.50;;;;;;;25.53;56.24;94420.88;5056826;28;20036;-82
2023/09/19 11:01:52;;;;;;;6.38;1.40;;;;;;;25.54;57.00;94422.44;5055707;28;20033;-82
2023/09/19 11:04:22;;;;;;;7.55;2.25;;;;;;;25.23;56.35;94430.38;5039288;28;20354;-81
2023/09/19 11:07:03;;;;;;;8.23;1.83;;;;;;;25.37;56.42;94431.72;5055853;28;20029;-82
2023/09/19 11:10:03;;;;;;;7.38;2.08;;;;;;;25.58;55.85;94419.81;5056720;28;20025;-82
2023/09/19 11:12:40;;;;;;;8.02;1.88;;;;;;;24.99;55.34;94426.97;5023975;28;20044;-82
2023/09/19 11:15:11;;;;;;;7.45;1.63;;;;;;;25.32;56.48;94432.06;5056784;28;20029;-82
2023/09/19 11:17:37;;;;;;;3.90;1.75;;;;;;;25.19;54.50;94420.75;5055477;28;20143;-82
2023/09/19 11:22:49;;;;;;;6.63;1.70;;;;;;;25.38;55.03;94423.34;5056629;28;20123;-82
2023/09/19 11:25:30;;;;;;;6.18;1.30;;;;;;;25.62;53.47;94409.88;5056613;28;20033;-82
2023/09/19 11:28:21;;;;;;;2.97;1.50;;;;;;;26.19;54.05;94422.50;5056790;28;20060;-82
2023/09/19 11:30:53;;;;;;;5.68;1.60;;;;;;;25.61;53.93;94419.84;5056568;28;20163;-82
2023/09/19 11:33:41;;;;;;;4.90;1.23;;;;;;;25.51;52.15;94417.81;5055424;28;20445;-82
2023/09/19 11:36:09;;;;;;;3.35;1.50;;;;;;;25.37;51.08;94421.78;5040547;28;20449;-82
2023/09/19 11:38:44;;;;;;;5.15;1.38;;;;;;;25.59;51.75;94430.16;5055334;28;20071;-82